sensor_id;sensor_type;location;lat;lon;timestamp;temperature;humidity
69546;SHT31;56766;52.260;20.746;2023-07-31T00:00:36;17.25;78.97
69546;SHT31;56766;52.260;20.746;2023-07-31T00:03:21;17.21;78.97
69546;SHT31;56766;52.260;20.746;2023-07-31T00:05:48;17.15;78.99
69546;SHT31;56766;52.260;20.746;2023-07-31T00:08:13;17.10;78.97
69546;SHT31;56766;52.260;20.746;2023-07-31T00:10:39;17.07;79.17
69546;SHT31;56766;52.260;20.746;2023-07-31T00:13:05;17.01;79.15
69546;SHT31;56766;52.260;20.746;2023-07-31T00:15:31;16.97;79.20
69546;SHT31;56766;52.260;20.746;2023-07-31T00:17:57;16.93;79.33
69546;SHT31;56766;52.260;20.746;2023-07-31T00:20:23;16.91;79.52
69546;SHT31;56766;52.260;20.746;2023-07-31T00:22:49;16.89;79.56
69546;SHT31;56766;52.260;20.746;2023-07-31T00:25:15;16.86;79.69
69546;SHT31;56766;52.260;20.746;2023-07-31T00:27:41;16.84;79.73
69546;SHT31;56766;52.260;20.746;2023-07-31T00:30:10;16.82;79.95
69546;SHT31;56766;52.260;20.746;2023-07-31T00:32:36;16.80;80.03
69546;SHT31;56766;52.260;20.746;2023-07-31T00:35:03;16.78;80.12
69546;SHT31;56766;52.260;20.746;2023-07-31T00:37:29;16.76;80.07
69546;SHT31;56766;52.260;20.746;2023-07-31T00:39:55;16.74;80.26
69546;SHT31;56766;52.260;20.746;2023-07-31T00:42:21;16.71;80.29
69546;SHT31;56766;52.260;20.746;2023-07-31T00:44:47;16.68;80.38
69546;SHT31;56766;52.260;20.746;2023-07-31T00:47:13;16.65;80.33
69546;SHT31;56766;52.260;20.746;2023-07-31T00:49:39;16.63;80.30
69546;SHT31;56766;52.260;20.746;2023-07-31T00:52:05;16.61;80.15
69546;SHT31;56766;52.260;20.746;2023-07-31T00:54:31;16.60;80.06
69546;SHT31;56766;52.260;20.746;2023-07-31T00:56:59;16.61;80.11
69546;SHT31;56766;52.260;20.746;2023-07-31T00:59:25;16.60;80.17
69546;SHT31;56766;52.260;20.746;2023-07-31T01:01:51;16.56;80.13
69546;SHT31;56766;52.260;20.746;2023-07-31T01:04:18;16.55;80.02
69546;SHT31;56766;52.260;20.746;2023-07-31T01:06:47;16.48;80.11
69546;SHT31;56766;52.260;20.746;2023-07-31T01:09:43;16.42;80.12
69546;SHT31;56766;52.260;20.746;2023-07-31T01:12:17;16.35;80.21
69546;SHT31;56766;52.260;20.746;2023-07-31T01:15:05;16.30;80.32
69546;SHT31;56766;52.260;20.746;2023-07-31T01:17:32;16.25;80.29
69546;SHT31;56766;52.260;20.746;2023-07-31T01:20:02;16.21;80.39
69546;SHT31;56766;52.260;20.746;2023-07-31T01:22:54;16.17;80.60
69546;SHT31;56766;52.260;20.746;2023-07-31T01:31:24;16.06;80.88
69546;SHT31;56766;52.260;20.746;2023-07-31T01:33:53;16.04;81.19
69546;SHT31;56766;52.260;20.746;2023-07-31T01:36:22;16.04;81.15
69546;SHT31;56766;52.260;20.746;2023-07-31T01:38:48;16.04;81.18
69546;SHT31;56766;52.260;20.746;2023-07-31T01:41:17;16.05;81.00
69546;SHT31;56766;52.260;20.746;2023-07-31T01:43:45;16.05;81.11
69546;SHT31;56766;52.260;20.746;2023-07-31T01:46:11;16.01;81.33
69546;SHT31;56766;52.260;20.746;2023-07-31T01:48:37;15.94;81.50
69546;SHT31;56766;52.260;20.746;2023-07-31T01:51:03;15.93;81.41
69546;SHT31;56766;52.260;20.746;2023-07-31T01:53:32;15.93;81.54
69546;SHT31;56766;52.260;20.746;2023-07-31T01:55:58;15.90;81.63
69546;SHT31;56766;52.260;20.746;2023-07-31T01:58:24;15.88;81.63
69546;SHT31;56766;52.260;20.746;2023-07-31T02:00:50;15.83;81.64
69546;SHT31;56766;52.260;20.746;2023-07-31T02:03:16;15.78;81.75
69546;SHT31;56766;52.260;20.746;2023-07-31T02:05:49;15.78;81.84
69546;SHT31;56766;52.260;20.746;2023-07-31T02:08:16;15.78;81.84
69546;SHT31;56766;52.260;20.746;2023-07-31T02:10:42;15.77;82.02
69546;SHT31;56766;52.260;20.746;2023-07-31T02:13:09;15.78;82.00
69546;SHT31;56766;52.260;20.746;2023-07-31T02:15:35;15.80;82.17
69546;SHT31;56766;52.260;20.746;2023-07-31T02:18:00;15.79;82.32
69546;SHT31;56766;52.260;20.746;2023-07-31T02:20:26;15.81;82.24
69546;SHT31;56766;52.260;20.746;2023-07-31T02:22:52;15.84;82.34
69546;SHT31;56766;52.260;20.746;2023-07-31T02:25:18;15.88;82.41
69546;SHT31;56766;52.260;20.746;2023-07-31T02:27:44;15.90;82.36
69546;SHT31;56766;52.260;20.746;2023-07-31T02:30:10;15.94;82.64
69546;SHT31;56766;52.260;20.746;2023-07-31T02:32:37;15.99;82.75
69546;SHT31;56766;52.260;20.746;2023-07-31T02:35:03;16.05;82.73
69546;SHT31;56766;52.260;20.746;2023-07-31T02:37:29;16.08;82.81
69546;SHT31;56766;52.260;20.746;2023-07-31T02:39:55;16.13;82.90
69546;SHT31;56766;52.260;20.746;2023-07-31T02:42:21;16.19;83.16
69546;SHT31;56766;52.260;20.746;2023-07-31T02:44:47;16.24;83.24
69546;SHT31;56766;52.260;20.746;2023-07-31T02:47:12;16.30;83.20
69546;SHT31;56766;52.260;20.746;2023-07-31T02:49:38;16.35;83.26
69546;SHT31;56766;52.260;20.746;2023-07-31T02:52:04;16.40;83.07
69546;SHT31;56766;52.260;20.746;2023-07-31T02:54:31;16.47;83.03
69546;SHT31;56766;52.260;20.746;2023-07-31T02:56:57;16.51;82.91
69546;SHT31;56766;52.260;20.746;2023-07-31T02:59:22;16.56;82.67
69546;SHT31;56766;52.260;20.746;2023-07-31T03:01:48;16.61;82.49
69546;SHT31;56766;52.260;20.746;2023-07-31T03:04:14;16.65;82.45
69546;SHT31;56766;52.260;20.746;2023-07-31T03:06:40;16.70;82.32
69546;SHT31;56766;52.260;20.746;2023-07-31T03:09:06;16.74;82.19
69546;SHT31;56766;52.260;20.746;2023-07-31T03:11:32;16.78;82.07
69546;SHT31;56766;52.260;20.746;2023-07-31T03:13:58;16.81;82.12
69546;SHT31;56766;52.260;20.746;2023-07-31T03:16:24;16.84;82.06
69546;SHT31;56766;52.260;20.746;2023-07-31T03:18:49;16.88;82.07
69546;SHT31;56766;52.260;20.746;2023-07-31T03:21:15;16.90;82.13
69546;SHT31;56766;52.260;20.746;2023-07-31T03:23:41;16.95;82.19
69546;SHT31;56766;52.260;20.746;2023-07-31T03:26:09;16.99;82.08
69546;SHT31;56766;52.260;20.746;2023-07-31T03:28:36;17.04;82.27
69546;SHT31;56766;52.260;20.746;2023-07-31T03:31:02;17.08;82.21
69546;SHT31;56766;52.260;20.746;2023-07-31T03:33:28;17.11;82.16
69546;SHT31;56766;52.260;20.746;2023-07-31T03:35:54;17.15;81.99
69546;SHT31;56766;52.260;20.746;2023-07-31T03:38:20;17.20;81.90
69546;SHT31;56766;52.260;20.746;2023-07-31T03:40:46;17.24;81.78
69546;SHT31;56766;52.260;20.746;2023-07-31T03:43:12;17.28;81.67
69546;SHT31;56766;52.260;20.746;2023-07-31T03:45:39;17.34;81.55
69546;SHT31;56766;52.260;20.746;2023-07-31T03:48:05;17.39;81.43
69546;SHT31;56766;52.260;20.746;2023-07-31T03:50:31;17.46;81.26
69546;SHT31;56766;52.260;20.746;2023-07-31T03:52:57;17.53;81.05
69546;SHT31;56766;52.260;20.746;2023-07-31T03:55:23;17.61;80.84
69546;SHT31;56766;52.260;20.746;2023-07-31T03:57:49;17.68;80.74
69546;SHT31;56766;52.260;20.746;2023-07-31T04:00:15;17.76;80.55
69546;SHT31;56766;52.260;20.746;2023-07-31T04:02:41;17.82;80.47
69546;SHT31;56766;52.260;20.746;2023-07-31T04:05:07;17.89;80.41
69546;SHT31;56766;52.260;20.746;2023-07-31T04:07:33;17.96;80.36
69546;SHT31;56766;52.260;20.746;2023-07-31T04:10:00;18.01;80.23
69546;SHT31;56766;52.260;20.746;2023-07-31T04:12:26;18.03;80.07
69546;SHT31;56766;52.260;20.746;2023-07-31T04:14:52;18.04;79.81
69546;SHT31;56766;52.260;20.746;2023-07-31T04:17:18;18.07;79.78
69546;SHT31;56766;52.260;20.746;2023-07-31T04:19:44;18.08;79.72
69546;SHT31;56766;52.260;20.746;2023-07-31T04:22:10;18.10;79.65
69546;SHT31;56766;52.260;20.746;2023-07-31T04:24:36;18.13;79.63
69546;SHT31;56766;52.260;20.746;2023-07-31T04:27:02;18.19;79.65
69546;SHT31;56766;52.260;20.746;2023-07-31T04:29:29;18.25;79.36
69546;SHT31;56766;52.260;20.746;2023-07-31T04:31:55;18.32;79.24
69546;SHT31;56766;52.260;20.746;2023-07-31T04:34:21;18.38;79.02
69546;SHT31;56766;52.260;20.746;2023-07-31T04:36:47;18.42;78.83
69546;SHT31;56766;52.260;20.746;2023-07-31T04:39:13;18.47;78.54
69546;SHT31;56766;52.260;20.746;2023-07-31T04:41:39;18.50;78.39
69546;SHT31;56766;52.260;20.746;2023-07-31T04:44:05;18.50;78.18
69546;SHT31;56766;52.260;20.746;2023-07-31T04:46:31;18.52;78.05
69546;SHT31;56766;52.260;20.746;2023-07-31T04:48:57;18.55;78.01
69546;SHT31;56766;52.260;20.746;2023-07-31T04:51:23;18.59;77.90
69546;SHT31;56766;52.260;20.746;2023-07-31T04:53:49;18.62;77.88
69546;SHT31;56766;52.260;20.746;2023-07-31T04:56:15;18.65;77.64
69546;SHT31;56766;52.260;20.746;2023-07-31T04:58:42;18.66;77.55
69546;SHT31;56766;52.260;20.746;2023-07-31T05:01:08;18.70;77.41
69546;SHT31;56766;52.260;20.746;2023-07-31T05:03:34;18.72;77.29
69546;SHT31;56766;52.260;20.746;2023-07-31T05:06:00;18.75;77.31
69546;SHT31;56766;52.260;20.746;2023-07-31T05:08:26;18.79;77.25
69546;SHT31;56766;52.260;20.746;2023-07-31T05:10:52;18.86;77.33
69546;SHT31;56766;52.260;20.746;2023-07-31T05:13:18;18.94;77.31
69546;SHT31;56766;52.260;20.746;2023-07-31T05:15:45;19.02;77.04
69546;SHT31;56766;52.260;20.746;2023-07-31T05:18:11;19.07;76.72
69546;SHT31;56766;52.260;20.746;2023-07-31T05:20:37;19.14;76.72
69546;SHT31;56766;52.260;20.746;2023-07-31T05:23:03;19.25;76.67
69546;SHT31;56766;52.260;20.746;2023-07-31T05:25:29;19.40;76.38
69546;SHT31;56766;52.260;20.746;2023-07-31T05:27:54;19.51;76.32
69546;SHT31;56766;52.260;20.746;2023-07-31T05:30:20;19.59;76.19
69546;SHT31;56766;52.260;20.746;2023-07-31T05:32:47;19.65;76.01
69546;SHT31;56766;52.260;20.746;2023-07-31T05:35:13;19.70;75.59
69546;SHT31;56766;52.260;20.746;2023-07-31T05:37:39;19.70;75.40
69546;SHT31;56766;52.260;20.746;2023-07-31T05:40:05;19.66;75.28
69546;SHT31;56766;52.260;20.746;2023-07-31T05:42:32;19.64;75.09
69546;SHT31;56766;52.260;20.746;2023-07-31T05:44:58;19.61;74.89
69546;SHT31;56766;52.260;20.746;2023-07-31T05:47:24;19.63;74.77
69546;SHT31;56766;52.260;20.746;2023-07-31T05:49:50;19.64;74.57
69546;SHT31;56766;52.260;20.746;2023-07-31T05:52:18;19.59;74.44
69546;SHT31;56766;52.260;20.746;2023-07-31T05:54:45;19.56;74.51
69546;SHT31;56766;52.260;20.746;2023-07-31T05:57:11;19.53;74.52
69546;SHT31;56766;52.260;20.746;2023-07-31T05:59:37;19.54;74.56
69546;SHT31;56766;52.260;20.746;2023-07-31T06:02:04;19.56;74.45
69546;SHT31;56766;52.260;20.746;2023-07-31T06:04:30;19.58;74.35
69546;SHT31;56766;52.260;20.746;2023-07-31T06:06:56;19.61;74.34
69546;SHT31;56766;52.260;20.746;2023-07-31T06:09:22;19.62;74.18
69546;SHT31;56766;52.260;20.746;2023-07-31T06:11:48;19.59;74.21
69546;SHT31;56766;52.260;20.746;2023-07-31T06:14:15;19.59;74.37
69546;SHT31;56766;52.260;20.746;2023-07-31T06:16:41;19.60;74.29
69546;SHT31;56766;52.260;20.746;2023-07-31T06:19:07;19.60;74.27
69546;SHT31;56766;52.260;20.746;2023-07-31T06:21:33;19.61;74.18
69546;SHT31;56766;52.260;20.746;2023-07-31T06:23:59;19.68;74.08
69546;SHT31;56766;52.260;20.746;2023-07-31T06:26:25;19.79;74.19
69546;SHT31;56766;52.260;20.746;2023-07-31T06:28:51;19.94;74.24
69546;SHT31;56766;52.260;20.746;2023-07-31T06:31:17;20.07;73.59
69546;SHT31;56766;52.260;20.746;2023-07-31T06:33:46;20.18;73.19
69546;SHT31;56766;52.260;20.746;2023-07-31T06:36:12;20.31;72.87
69546;SHT31;56766;52.260;20.746;2023-07-31T06:38:38;20.48;73.09
69546;SHT31;56766;52.260;20.746;2023-07-31T06:41:04;20.71;72.64
69546;SHT31;56766;52.260;20.746;2023-07-31T06:43:30;20.92;71.99
69546;SHT31;56766;52.260;20.746;2023-07-31T06:45:56;21.11;71.67
69546;SHT31;56766;52.260;20.746;2023-07-31T06:48:22;21.25;71.19
69546;SHT31;56766;52.260;20.746;2023-07-31T06:50:48;21.41;71.15
69546;SHT31;56766;52.260;20.746;2023-07-31T06:53:14;21.62;71.36
69546;SHT31;56766;52.260;20.746;2023-07-31T06:55:40;21.77;70.51
69546;SHT31;56766;52.260;20.746;2023-07-31T06:58:06;21.82;69.29
69546;SHT31;56766;52.260;20.746;2023-07-31T07:00:32;21.88;68.37
69546;SHT31;56766;52.260;20.746;2023-07-31T07:02:59;21.94;68.15
69546;SHT31;56766;52.260;20.746;2023-07-31T07:05:25;22.00;67.82
69546;SHT31;56766;52.260;20.746;2023-07-31T07:07:51;22.15;68.46
69546;SHT31;56766;52.260;20.746;2023-07-31T07:10:17;22.37;68.25
69546;SHT31;56766;52.260;20.746;2023-07-31T07:12:44;22.55;67.61
69546;SHT31;56766;52.260;20.746;2023-07-31T07:15:10;22.72;67.36
69546;SHT31;56766;52.260;20.746;2023-07-31T07:17:36;22.96;67.34
69546;SHT31;56766;52.260;20.746;2023-07-31T07:20:03;23.21;66.67
69546;SHT31;56766;52.260;20.746;2023-07-31T07:22:29;23.28;64.94
69546;SHT31;56766;52.260;20.746;2023-07-31T07:24:55;23.24;64.10
69546;SHT31;56766;52.260;20.746;2023-07-31T07:27:21;23.27;64.13
69546;SHT31;56766;52.260;20.746;2023-07-31T07:29:50;23.40;63.83
69546;SHT31;56766;52.260;20.746;2023-07-31T07:32:20;23.71;64.35
69546;SHT31;56766;52.260;20.746;2023-07-31T07:34:48;24.06;63.64
69546;SHT31;56766;52.260;20.746;2023-07-31T07:37:14;24.26;62.96
69546;SHT31;56766;52.260;20.746;2023-07-31T07:39:41;24.38;62.09
69546;SHT31;56766;52.260;20.746;2023-07-31T07:42:07;24.40;61.73
69546;SHT31;56766;52.260;20.746;2023-07-31T07:44:33;24.42;61.66
69546;SHT31;56766;52.260;20.746;2023-07-31T07:46:59;24.46;61.06
69546;SHT31;56766;52.260;20.746;2023-07-31T07:49:25;24.57;61.28
69546;SHT31;56766;52.260;20.746;2023-07-31T07:51:51;24.74;60.22
69546;SHT31;56766;52.260;20.746;2023-07-31T07:54:17;24.78;59.42
69546;SHT31;56766;52.260;20.746;2023-07-31T07:56:43;24.77;59.96
69546;SHT31;56766;52.260;20.746;2023-07-31T07:59:09;24.95;60.27
69546;SHT31;56766;52.260;20.746;2023-07-31T08:01:35;25.12;59.80
69546;SHT31;56766;52.260;20.746;2023-07-31T08:04:00;25.35;59.43
69546;SHT31;56766;52.260;20.746;2023-07-31T08:06:26;25.60;59.14
69546;SHT31;56766;52.260;20.746;2023-07-31T08:08:53;25.73;57.55
69546;SHT31;56766;52.260;20.746;2023-07-31T08:11:18;25.82;56.95
69546;SHT31;56766;52.260;20.746;2023-07-31T08:13:44;25.96;56.79
69546;SHT31;56766;52.260;20.746;2023-07-31T08:16:10;26.09;56.14
69546;SHT31;56766;52.260;20.746;2023-07-31T08:18:36;26.32;55.96
69546;SHT31;56766;52.260;20.746;2023-07-31T08:21:03;26.52;55.77
69546;SHT31;56766;52.260;20.746;2023-07-31T08:23:29;26.63;54.53
69546;SHT31;56766;52.260;20.746;2023-07-31T08:25:55;26.61;54.72
69546;SHT31;56766;52.260;20.746;2023-07-31T08:28:20;26.73;54.85
69546;SHT31;56766;52.260;20.746;2023-07-31T08:30:46;26.96;54.51
69546;SHT31;56766;52.260;20.746;2023-07-31T08:33:13;27.17;53.66
69546;SHT31;56766;52.260;20.746;2023-07-31T08:35:39;27.21;52.50
69546;SHT31;56766;52.260;20.746;2023-07-31T08:38:05;27.20;52.66
69546;SHT31;56766;52.260;20.746;2023-07-31T08:40:31;27.18;50.70
69546;SHT31;56766;52.260;20.746;2023-07-31T08:42:57;27.14;51.22
69546;SHT31;56766;52.260;20.746;2023-07-31T08:45:28;27.11;50.38
69546;SHT31;56766;52.260;20.746;2023-07-31T08:47:56;27.17;51.77
69546;SHT31;56766;52.260;20.746;2023-07-31T08:50:25;27.42;51.71
69546;SHT31;56766;52.260;20.746;2023-07-31T08:52:52;27.71;52.15
69546;SHT31;56766;52.260;20.746;2023-07-31T08:55:19;27.99;51.24
69546;SHT31;56766;52.260;20.746;2023-07-31T08:57:52;27.90;50.00
69546;SHT31;56766;52.260;20.746;2023-07-31T09:00:19;27.66;48.84
69546;SHT31;56766;52.260;20.746;2023-07-31T09:03:00;27.52;48.59
69546;SHT31;56766;52.260;20.746;2023-07-31T09:05:31;27.56;48.69
69546;SHT31;56766;52.260;20.746;2023-07-31T09:07:58;27.62;48.61
69546;SHT31;56766;52.260;20.746;2023-07-31T09:10:24;27.45;47.18
69546;SHT31;56766;52.260;20.746;2023-07-31T09:12:53;27.17;47.23
69546;SHT31;56766;52.260;20.746;2023-07-31T09:15:21;27.06;47.87
69546;SHT31;56766;52.260;20.746;2023-07-31T09:17:59;27.10;48.58
69546;SHT31;56766;52.260;20.746;2023-07-31T09:20:29;27.16;47.90
69546;SHT31;56766;52.260;20.746;2023-07-31T09:22:55;27.31;48.66
69546;SHT31;56766;52.260;20.746;2023-07-31T09:25:30;27.42;47.39
69546;SHT31;56766;52.260;20.746;2023-07-31T09:28:00;27.60;47.27
69546;SHT31;56766;52.260;20.746;2023-07-31T09:30:28;27.84;46.83
69546;SHT31;56766;52.260;20.746;2023-07-31T09:33:04;27.91;45.28
69546;SHT31;56766;52.260;20.746;2023-07-31T09:35:34;27.55;44.07
69546;SHT31;56766;52.260;20.746;2023-07-31T09:38:06;27.38;45.62
69546;SHT31;56766;52.260;20.746;2023-07-31T09:40:36;27.48;45.99
69546;SHT31;56766;52.260;20.746;2023-07-31T09:43:12;27.43;43.97
69546;SHT31;56766;52.260;20.746;2023-07-31T09:45:41;27.38;44.05
69546;SHT31;56766;52.260;20.746;2023-07-31T09:48:11;27.40;43.69
69546;SHT31;56766;52.260;20.746;2023-07-31T09:50:39;27.40;44.04
69546;SHT31;56766;52.260;20.746;2023-07-31T09:53:08;27.45;43.24
69546;SHT31;56766;52.260;20.746;2023-07-31T09:55:37;27.55;42.72
69546;SHT31;56766;52.260;20.746;2023-07-31T09:58:06;27.74;42.97
69546;SHT31;56766;52.260;20.746;2023-07-31T10:00:34;27.93;42.49
69546;SHT31;56766;52.260;20.746;2023-07-31T10:03:04;27.98;42.06
69546;SHT31;56766;52.260;20.746;2023-07-31T10:05:42;28.00;42.75
69546;SHT31;56766;52.260;20.746;2023-07-31T10:08:15;28.17;42.89
69546;SHT31;56766;52.260;20.746;2023-07-31T10:10:45;28.26;42.15
69546;SHT31;56766;52.260;20.746;2023-07-31T10:13:12;28.42;42.16
69546;SHT31;56766;52.260;20.746;2023-07-31T10:15:40;28.37;40.23
69546;SHT31;56766;52.260;20.746;2023-07-31T10:18:07;28.31;42.51
69546;SHT31;56766;52.260;20.746;2023-07-31T10:20:35;28.54;42.99
69546;SHT31;56766;52.260;20.746;2023-07-31T10:23:01;28.76;41.73
69546;SHT31;56766;52.260;20.746;2023-07-31T10:25:28;28.86;40.77
69546;SHT31;56766;52.260;20.746;2023-07-31T10:27:57;28.90;40.23
69546;SHT31;56766;52.260;20.746;2023-07-31T10:30:29;28.96;40.51
69546;SHT31;56766;52.260;20.746;2023-07-31T10:32:58;29.01;39.83
69546;SHT31;56766;52.260;20.746;2023-07-31T10:35:25;29.02;39.72
69546;SHT31;56766;52.260;20.746;2023-07-31T10:37:52;29.03;39.49
69546;SHT31;56766;52.260;20.746;2023-07-31T10:40:23;28.92;38.51
69546;SHT31;56766;52.260;20.746;2023-07-31T10:42:53;28.68;38.60
69546;SHT31;56766;52.260;20.746;2023-07-31T10:45:38;28.37;38.16
69546;SHT31;56766;52.260;20.746;2023-07-31T10:48:13;28.19;39.29
69546;SHT31;56766;52.260;20.746;2023-07-31T10:50:49;28.20;39.89
69546;SHT31;56766;52.260;20.746;2023-07-31T10:53:25;28.48;40.50
69546;SHT31;56766;52.260;20.746;2023-07-31T10:55:52;28.62;39.52
69546;SHT31;56766;52.260;20.746;2023-07-31T10:58:20;28.64;39.55
69546;SHT31;56766;52.260;20.746;2023-07-31T11:00:48;28.66;39.27
69546;SHT31;56766;52.260;20.746;2023-07-31T11:03:16;28.64;39.16
69546;SHT31;56766;52.260;20.746;2023-07-31T11:05:49;28.67;38.99
69546;SHT31;56766;52.260;20.746;2023-07-31T11:08:31;28.70;40.83
69546;SHT31;56766;52.260;20.746;2023-07-31T11:13:29;28.93;39.96
69546;SHT31;56766;52.260;20.746;2023-07-31T11:15:56;29.08;40.80
69546;SHT31;56766;52.260;20.746;2023-07-31T11:18:24;29.26;40.58
69546;SHT31;56766;52.260;20.746;2023-07-31T11:20:53;29.38;40.37
69546;SHT31;56766;52.260;20.746;2023-07-31T11:23:21;29.50;40.24
69546;SHT31;56766;52.260;20.746;2023-07-31T11:25:49;29.61;40.51
69546;SHT31;56766;52.260;20.746;2023-07-31T11:28:17;29.59;39.02
69546;SHT31;56766;52.260;20.746;2023-07-31T11:30:46;29.48;39.72
69546;SHT31;56766;52.260;20.746;2023-07-31T11:33:13;29.48;40.02
69546;SHT31;56766;52.260;20.746;2023-07-31T11:35:48;29.35;38.59
69546;SHT31;56766;52.260;20.746;2023-07-31T11:38:29;29.23;38.88
69546;SHT31;56766;52.260;20.746;2023-07-31T11:41:03;29.05;38.16
69546;SHT31;56766;52.260;20.746;2023-07-31T11:43:33;28.91;38.38
69546;SHT31;56766;52.260;20.746;2023-07-31T11:46:01;28.89;39.50
69546;SHT31;56766;52.260;20.746;2023-07-31T11:48:34;28.97;40.03
69546;SHT31;56766;52.260;20.746;2023-07-31T11:51:04;29.08;39.57
69546;SHT31;56766;52.260;20.746;2023-07-31T11:53:51;29.10;39.08
69546;SHT31;56766;52.260;20.746;2023-07-31T11:56:24;28.93;38.45
69546;SHT31;56766;52.260;20.746;2023-07-31T11:58:59;28.73;38.83
69546;SHT31;56766;52.260;20.746;2023-07-31T12:01:29;28.68;38.97
69546;SHT31;56766;52.260;20.746;2023-07-31T12:03:57;28.65;39.06
69546;SHT31;56766;52.260;20.746;2023-07-31T12:06:33;28.57;39.94
69546;SHT31;56766;52.260;20.746;2023-07-31T12:09:02;28.48;40.22
69546;SHT31;56766;52.260;20.746;2023-07-31T12:11:29;28.36;40.96
69546;SHT31;56766;52.260;20.746;2023-07-31T12:13:55;28.28;41.34
69546;SHT31;56766;52.260;20.746;2023-07-31T12:16:26;28.19;40.61
69546;SHT31;56766;52.260;20.746;2023-07-31T12:18:53;28.13;41.45
69546;SHT31;56766;52.260;20.746;2023-07-31T12:21:20;28.22;41.32
69546;SHT31;56766;52.260;20.746;2023-07-31T12:23:46;28.24;41.43
69546;SHT31;56766;52.260;20.746;2023-07-31T12:26:15;28.35;41.88
69546;SHT31;56766;52.260;20.746;2023-07-31T12:28:49;28.54;42.47
69546;SHT31;56766;52.260;20.746;2023-07-31T12:31:19;28.77;42.49
69546;SHT31;56766;52.260;20.746;2023-07-31T12:33:49;29.04;42.02
69546;SHT31;56766;52.260;20.746;2023-07-31T12:36:24;29.30;42.18
69546;SHT31;56766;52.260;20.746;2023-07-31T12:38:51;29.69;41.77
69546;SHT31;56766;52.260;20.746;2023-07-31T12:41:18;30.08;41.17
69546;SHT31;56766;52.260;20.746;2023-07-31T12:43:45;30.26;40.35
69546;SHT31;56766;52.260;20.746;2023-07-31T12:46:11;30.32;40.37
69546;SHT31;56766;52.260;20.746;2023-07-31T12:48:39;30.25;39.70
69546;SHT31;56766;52.260;20.746;2023-07-31T12:51:06;30.13;40.08
69546;SHT31;56766;52.260;20.746;2023-07-31T12:53:33;30.17;40.11
69546;SHT31;56766;52.260;20.746;2023-07-31T12:55:59;30.40;40.96
69546;SHT31;56766;52.260;20.746;2023-07-31T12:58:25;30.66;39.73
69546;SHT31;56766;52.260;20.746;2023-07-31T13:00:51;30.65;38.52
69546;SHT31;56766;52.260;20.746;2023-07-31T13:03:17;30.62;37.85
69546;SHT31;56766;52.260;20.746;2023-07-31T13:05:43;30.58;38.13
69546;SHT31;56766;52.260;20.746;2023-07-31T13:08:09;30.43;38.51
69546;SHT31;56766;52.260;20.746;2023-07-31T13:10:35;30.23;38.64
69546;SHT31;56766;52.260;20.746;2023-07-31T13:13:01;29.97;38.62
69546;SHT31;56766;52.260;20.746;2023-07-31T13:15:27;29.66;38.59
69546;SHT31;56766;52.260;20.746;2023-07-31T13:17:53;29.32;38.73
69546;SHT31;56766;52.260;20.746;2023-07-31T13:20:19;29.00;39.20
69546;SHT31;56766;52.260;20.746;2023-07-31T13:22:45;28.74;39.95
69546;SHT31;56766;52.260;20.746;2023-07-31T13:25:11;28.53;39.59
69546;SHT31;56766;52.260;20.746;2023-07-31T13:27:37;28.30;40.14
69546;SHT31;56766;52.260;20.746;2023-07-31T13:30:03;28.21;41.10
69546;SHT31;56766;52.260;20.746;2023-07-31T13:32:30;28.18;40.88
69546;SHT31;56766;52.260;20.746;2023-07-31T13:34:56;28.12;40.27
69546;SHT31;56766;52.260;20.746;2023-07-31T13:37:22;28.23;41.01
69546;SHT31;56766;52.260;20.746;2023-07-31T13:39:48;28.55;40.63
69546;SHT31;56766;52.260;20.746;2023-07-31T13:42:14;28.78;40.49
69546;SHT31;56766;52.260;20.746;2023-07-31T13:44:49;28.79;38.96
69546;SHT31;56766;52.260;20.746;2023-07-31T13:47:15;28.58;38.85
69546;SHT31;56766;52.260;20.746;2023-07-31T13:49:41;28.49;39.92
69546;SHT31;56766;52.260;20.746;2023-07-31T13:52:09;28.35;39.67
69546;SHT31;56766;52.260;20.746;2023-07-31T13:54:35;28.19;40.04
69546;SHT31;56766;52.260;20.746;2023-07-31T13:57:01;28.05;40.15
69546;SHT31;56766;52.260;20.746;2023-07-31T13:59:27;27.92;40.12
69546;SHT31;56766;52.260;20.746;2023-07-31T14:01:53;27.71;39.80
69546;SHT31;56766;52.260;20.746;2023-07-31T14:04:19;27.48;39.72
69546;SHT31;56766;52.260;20.746;2023-07-31T14:06:47;27.24;39.44
69546;SHT31;56766;52.260;20.746;2023-07-31T14:09:15;27.06;40.05
69546;SHT31;56766;52.260;20.746;2023-07-31T14:11:41;27.07;40.42
69546;SHT31;56766;52.260;20.746;2023-07-31T14:14:09;27.14;40.66
69546;SHT31;56766;52.260;20.746;2023-07-31T14:16:35;27.21;40.73
69546;SHT31;56766;52.260;20.746;2023-07-31T14:19:01;27.37;41.49
69546;SHT31;56766;52.260;20.746;2023-07-31T14:21:27;27.54;41.42
69546;SHT31;56766;52.260;20.746;2023-07-31T14:23:53;27.56;40.09
69546;SHT31;56766;52.260;20.746;2023-07-31T14:26:19;27.49;40.15
69546;SHT31;56766;52.260;20.746;2023-07-31T14:28:46;27.60;40.19
69546;SHT31;56766;52.260;20.746;2023-07-31T14:31:12;27.88;40.35
69546;SHT31;56766;52.260;20.746;2023-07-31T14:33:38;28.16;39.84
69546;SHT31;56766;52.260;20.746;2023-07-31T14:36:04;28.26;40.12
69546;SHT31;56766;52.260;20.746;2023-07-31T14:38:30;28.24;39.98
69546;SHT31;56766;52.260;20.746;2023-07-31T14:40:56;28.12;39.93
69546;SHT31;56766;52.260;20.746;2023-07-31T14:43:22;27.96;39.92
69546;SHT31;56766;52.260;20.746;2023-07-31T14:45:49;27.75;41.08
69546;SHT31;56766;52.260;20.746;2023-07-31T14:48:15;27.59;41.95
69546;SHT31;56766;52.260;20.746;2023-07-31T14:50:41;27.43;41.91
69546;SHT31;56766;52.260;20.746;2023-07-31T16:07:25;25.99;44.84
69546;SHT31;56766;52.260;20.746;2023-07-31T16:09:53;25.82;45.15
69546;SHT31;56766;52.260;20.746;2023-07-31T16:12:19;25.66;45.24
69546;SHT31;56766;52.260;20.746;2023-07-31T16:14:46;25.43;45.44
69546;SHT31;56766;52.260;20.746;2023-07-31T16:17:12;25.23;46.04
69546;SHT31;56766;52.260;20.746;2023-07-31T16:19:39;25.04;46.32
69546;SHT31;56766;52.260;20.746;2023-07-31T16:22:06;24.90;46.42
69546;SHT31;56766;52.260;20.746;2023-07-31T16:24:33;24.82;46.80
69546;SHT31;56766;52.260;20.746;2023-07-31T16:26:59;24.75;46.77
69546;SHT31;56766;52.260;20.746;2023-07-31T16:29:26;24.73;46.97
69546;SHT31;56766;52.260;20.746;2023-07-31T16:31:53;24.71;47.16
69546;SHT31;56766;52.260;20.746;2023-07-31T16:34:19;24.71;47.44
69546;SHT31;56766;52.260;20.746;2023-07-31T16:36:46;24.72;47.58
69546;SHT31;56766;52.260;20.746;2023-07-31T16:39:12;24.68;48.10